Time;durP1;ratioP1;P1;durP2;ratioP2;P2;SDS_P1;SDS_P2;PMS_P1;PMS_P2;Temp;Humidity;BMP_temperature;BMP_pressure;BME280_temperature;BME280_humidity;BME280_pressure;Samples;Min_cycle;Max_cycle;Signal;HPM_P1;HPM_P2
2024/03/27 00:00:57;;;;;;;16.30;3.60;;;;;;;11.50;100.00;98372.34;5043408;28;20494;-66
2024/03/27 00:03:22;;;;;;;17.90;3.92;;;;;;;11.48;100.00;98366.22;5041719;28;20124;-66
2024/03/27 00:05:48;;;;;;;19.42;3.80;;;;;;;11.45;100.00;98369.00;5042200;28;20464;-66
2024/03/27 00:08:13;;;;;;;14.48;3.35;;;;;;;11.41;100.00;98372.69;5043356;28;20479;-75
2024/03/27 00:10:38;;;;;;;18.42;3.75;;;;;;;11.38;100.00;98375.44;5041433;28;20510;-76
2024/03/27 00:13:03;;;;;;;17.33;3.40;;;;;;;11.35;100.00;98370.28;5044405;28;20392;-73
2024/03/27 00:15:29;;;;;;;17.90;3.80;;;;;;;11.36;100.00;98371.13;5042235;28;20357;-73
2024/03/27 00:17:54;;;;;;;15.70;3.50;;;;;;;11.34;100.00;98368.53;5042826;28;20079;-73
2024/03/27 00:20:21;;;;;;;16.40;3.72;;;;;;;11.30;100.00;98364.28;5043071;28;20025;-67
2024/03/27 00:22:46;;;;;;;16.85;3.60;;;;;;;11.24;100.00;98353.94;5041795;28;20029;-74
2024/03/27 00:25:12;;;;;;;17.33;3.53;;;;;;;11.17;100.00;98355.97;5044245;28;20055;-73
2024/03/27 00:27:38;;;;;;;15.30;3.58;;;;;;;11.11;100.00;98353.53;5040856;28;20185;-73
2024/03/27 00:30:05;;;;;;;16.80;3.70;;;;;;;11.03;100.00;98353.81;5043877;28;20082;-73
2024/03/27 00:32:30;;;;;;;16.38;3.80;;;;;;;10.96;100.00;98344.41;5043273;28;20167;-74
2024/03/27 00:34:56;;;;;;;17.38;3.70;;;;;;;10.90;100.00;98342.00;5042304;28;20089;-74
2024/03/27 00:37:21;;;;;;;14.85;3.53;;;;;;;10.86;100.00;98343.88;5040936;28;20033;-74
2024/03/27 00:39:46;;;;;;;15.57;3.60;;;;;;;10.85;100.00;98343.91;5043225;28;20021;-73
2024/03/27 00:42:12;;;;;;;16.90;3.83;;;;;;;10.79;100.00;98335.31;5041224;28;20059;-74
2024/03/27 00:44:37;;;;;;;16.55;3.72;;;;;;;10.77;100.00;98339.78;5042841;28;20037;-73
2024/03/27 00:47:02;;;;;;;15.80;3.80;;;;;;;10.69;100.00;98336.56;5041330;28;20065;-75
2024/03/27 00:49:28;;;;;;;17.45;4.53;;;;;;;10.51;100.00;98334.56;5043004;28;20076;-69
2024/03/27 00:51:53;;;;;;;17.73;4.40;;;;;;;10.35;100.00;98340.38;5042403;28;20033;-70
2024/03/27 00:54:20;;;;;;;18.02;4.45;;;;;;;10.25;100.00;98345.09;5041791;28;20030;-66
2024/03/27 00:56:46;;;;;;;17.85;4.40;;;;;;;10.17;100.00;98341.84;5046019;28;20120;-66
2024/03/27 00:59:11;;;;;;;16.90;4.65;;;;;;;10.10;100.00;98335.03;5048544;28;20120;-71
2024/03/27 01:01:37;;;;;;;18.30;4.70;;;;;;;10.02;100.00;98331.78;5044385;28;20030;-69
2024/03/27 01:04:02;;;;;;;19.58;5.30;;;;;;;9.94;100.00;98334.69;5046110;28;20514;-71
2024/03/27 01:06:27;;;;;;;19.23;5.50;;;;;;;9.90;100.00;98336.59;5045649;28;20468;-74
2024/03/27 01:08:53;;;;;;;18.42;5.00;;;;;;;9.87;100.00;98334.06;5046039;28;20139;-73
2024/03/27 01:11:18;;;;;;;19.60;5.30;;;;;;;9.84;100.00;98333.28;5046613;28;20025;-68
2024/03/27 01:13:43;;;;;;;19.33;5.35;;;;;;;9.84;100.00;98335.91;5044531;28;20113;-66
2024/03/27 01:16:08;;;;;;;19.25;5.88;;;;;;;9.80;100.00;98327.25;5047787;28;20049;-66
2024/03/27 01:18:34;;;;;;;19.50;6.00;;;;;;;9.81;100.00;98328.94;5026614;28;20049;-65
2024/03/27 01:20:59;;;;;;;19.42;5.90;;;;;;;9.79;100.00;98329.94;5046558;28;20116;-67
2024/03/27 01:23:24;;;;;;;19.35;5.80;;;;;;;9.81;100.00;98325.47;5045849;28;20124;-66
2024/03/27 01:25:50;;;;;;;19.75;5.80;;;;;;;9.76;100.00;98322.97;5043897;28;20172;-71
2024/03/27 01:28:15;;;;;;;20.42;6.43;;;;;;;9.71;100.00;98317.84;5046705;28;20052;-69
2024/03/27 01:30:40;;;;;;;18.90;5.90;;;;;;;9.66;100.00;98319.75;5044052;28;20078;-71
2024/03/27 01:33:07;;;;;;;19.67;6.30;;;;;;;9.64;100.00;98323.34;5046125;28;20088;-71
2024/03/27 01:35:32;;;;;;;20.35;6.30;;;;;;;9.59;100.00;98319.09;5044372;28;20476;-70
2024/03/27 01:37:57;;;;;;;20.75;6.05;;;;;;;9.56;100.00;98320.97;5046049;28;20056;-71
2024/03/27 01:40:23;;;;;;;19.80;6.35;;;;;;;9.49;100.00;98306.25;5045887;28;20110;-70
2024/03/27 01:42:59;;;;;;;18.08;6.18;;;;;;;9.46;100.00;98311.63;5044760;28;20423;-69
2024/03/27 01:45:24;;;;;;;20.27;6.30;;;;;;;9.41;100.00;98307.34;5045484;28;20061;-76
2024/03/27 01:47:49;;;;;;;19.23;6.10;;;;;;;9.33;100.00;98306.72;5043478;28;20068;-68
2024/03/27 01:50:15;;;;;;;19.83;6.03;;;;;;;9.25;100.00;98301.69;5046423;28;20039;-72
2024/03/27 01:52:40;;;;;;;19.55;6.57;;;;;;;9.21;100.00;98302.69;5043699;28;20033;-68
2024/03/27 01:55:07;;;;;;;18.52;5.80;;;;;;;9.18;100.00;98296.66;5046825;28;20091;-72
2024/03/27 01:57:36;;;;;;;19.88;6.40;;;;;;;9.14;100.00;98295.03;5044254;28;20057;-75
2024/03/27 02:00:04;;;;;;;19.02;5.85;;;;;;;9.09;100.00;98287.25;5045049;28;20060;-75
2024/03/27 02:02:29;;;;;;;20.30;6.15;;;;;;;9.08;100.00;98281.09;5044597;28;20029;-75
2024/03/27 02:04:54;;;;;;;19.48;6.00;;;;;;;9.09;100.00;98284.63;5044919;28;20048;-76
2024/03/27 02:07:21;;;;;;;18.60;5.90;;;;;;;9.13;100.00;98293.28;5044886;28;20056;-66
2024/03/27 02:09:46;;;;;;;19.27;6.00;;;;;;;9.16;100.00;98287.91;5042966;28;20087;-72
2024/03/27 02:12:12;;;;;;;18.65;5.53;;;;;;;9.18;100.00;98278.22;5046399;28;20033;-66
2024/03/27 02:14:37;;;;;;;17.92;5.20;;;;;;;9.19;100.00;98282.56;5043217;28;20033;-67
2024/03/27 02:17:03;;;;;;;17.95;5.80;;;;;;;9.18;100.00;98280.84;5045897;28;20434;-69
2024/03/27 02:19:28;;;;;;;19.15;5.63;;;;;;;9.11;100.00;98274.03;5044527;28;20037;-68
2024/03/27 02:21:54;;;;;;;18.60;5.70;;;;;;;9.06;100.00;98276.81;5044743;28;20025;-67
2024/03/27 02:24:25;;;;;;;18.10;5.43;;;;;;;9.00;100.00;98272.59;5045138;28;20072;-66
2024/03/27 02:26:50;;;;;;;17.92;5.70;;;;;;;8.94;100.00;98277.16;5042337;28;20072;-66
2024/03/27 02:29:16;;;;;;;18.70;5.72;;;;;;;8.96;100.00;98280.63;5045982;28;20063;-67
2024/03/27 02:31:41;;;;;;;17.52;5.70;;;;;;;8.92;100.00;98284.25;5042707;28;20472;-67
2024/03/27 02:34:06;;;;;;;19.17;5.57;;;;;;;8.94;100.00;98275.41;5046386;28;20058;-66
2024/03/27 02:36:32;;;;;;;19.73;5.60;;;;;;;8.96;100.00;98272.72;5042099;28;20396;-70
2024/03/27 02:38:57;;;;;;;19.88;5.50;;;;;;;8.98;100.00;98270.91;5044790;28;20037;-67
2024/03/27 02:41:24;;;;;;;19.27;5.20;;;;;;;9.01;100.00;98257.63;5044663;28;20029;-66
2024/03/27 02:43:50;;;;;;;18.55;5.15;;;;;;;8.99;100.00;98256.81;5043376;28;20365;-66
2024/03/27 02:46:15;;;;;;;19.38;5.90;;;;;;;9.03;100.00;98254.03;5044430;28;20058;-66
2024/03/27 02:48:41;;;;;;;18.95;5.35;;;;;;;9.03;100.00;98251.41;5041406;28;20572;-67
2024/03/27 02:51:06;;;;;;;17.42;5.32;;;;;;;9.04;100.00;98258.41;5045516;28;20077;-67
2024/03/27 02:53:32;;;;;;;19.13;5.43;;;;;;;9.11;100.00;98253.78;5042967;28;20144;-68
2024/03/27 02:55:57;;;;;;;17.73;5.10;;;;;;;9.15;100.00;98265.13;5044484;28;20057;-66
2024/03/27 02:58:22;;;;;;;16.25;4.60;;;;;;;9.17;100.00;98258.88;5044416;28;20044;-66
2024/03/27 03:00:49;;;;;;;18.27;5.18;;;;;;;9.17;100.00;98258.88;5041528;28;20047;-67
2024/03/27 03:03:14;;;;;;;17.13;5.00;;;;;;;9.21;100.00;98271.06;5045293;28;20063;-73
2024/03/27 03:05:41;;;;;;;18.70;5.00;;;;;;;9.20;100.00;98264.06;5042336;28;20108;-67
2024/03/27 03:08:07;;;;;;;17.45;4.85;;;;;;;9.21;100.00;98276.31;5045315;28;20373;-67
2024/03/27 03:10:32;;;;;;;17.13;4.50;;;;;;;9.25;100.00;98287.66;5042978;28;20040;-72
2024/03/27 03:12:57;;;;;;;15.63;4.70;;;;;;;9.25;100.00;98292.91;5043888;28;20033;-66
2024/03/27 03:15:23;;;;;;;17.13;4.80;;;;;;;9.28;100.00;98277.00;5044310;28;20049;-73
2024/03/27 03:17:48;;;;;;;15.90;4.18;;;;;;;9.33;100.00;98296.16;5042229;28;20366;-72
2024/03/27 03:20:14;;;;;;;13.93;4.30;;;;;;;9.36;100.00;98292.56;5045411;28;20032;-71
2024/03/27 03:22:40;;;;;;;13.10;3.67;;;;;;;9.36;100.00;98304.00;5042259;28;20372;-66
2024/03/27 03:25:05;;;;;;;7.43;2.63;;;;;;;9.53;100.00;98303.47;5044583;28;20041;-72
2024/03/27 03:27:32;;;;;;;4.63;2.25;;;;;;;9.71;100.00;98307.31;5042358;28;20055;-71
2024/03/27 03:29:57;;;;;;;4.13;2.20;;;;;;;9.80;100.00;98315.81;5042576;28;20036;-68
2024/03/27 03:32:22;;;;;;;3.20;2.10;;;;;;;9.85;100.00;98301.56;5043695;28;20422;-66
2024/03/27 03:34:48;;;;;;;4.75;2.10;;;;;;;9.86;100.00;98300.66;5042404;28;20447;-71
2024/03/27 03:37:13;;;;;;;4.57;2.20;;;;;;;9.81;100.00;98313.13;5045308;28;20033;-73
2024/03/27 03:39:38;;;;;;;6.25;2.20;;;;;;;9.86;100.00;98297.13;5041642;28;20034;-74
2024/03/27 03:42:04;;;;;;;4.93;2.40;;;;;;;9.86;100.00;98289.22;5044224;28;20032;-67
2024/03/27 03:44:29;;;;;;;4.07;2.55;;;;;;;9.85;100.00;98293.63;5042609;28;20082;-65
2024/03/27 03:46:55;;;;;;;4.70;2.70;;;;;;;9.85;100.00;98287.50;5043198;28;20418;-66
2024/03/27 03:49:20;;;;;;;5.05;2.70;;;;;;;9.74;100.00;98279.94;5043629;28;20118;-67
2024/03/27 03:51:46;;;;;;;5.05;2.70;;;;;;;9.74;100.00;98286.09;5041820;28;20029;-66
2024/03/27 03:54:12;;;;;;;6.95;2.90;;;;;;;9.65;100.00;98270.53;5044578;28;20035;-66
2024/03/27 03:56:37;;;;;;;6.13;2.92;;;;;;;9.60;100.00;98262.78;5041695;28;20075;-67
2024/03/27 03:59:02;;;;;;;7.00;3.20;;;;;;;9.53;100.00;98261.25;5043542;28;20037;-66
2024/03/27 04:01:28;;;;;;;7.93;3.40;;;;;;;9.48;100.00;98255.28;5042336;28;20037;-69
2024/03/27 04:03:53;;;;;;;7.78;3.50;;;;;;;9.43;100.00;98244.88;5042537;28;20033;-67
2024/03/27 04:06:18;;;;;;;9.40;3.90;;;;;;;9.42;100.00;98232.63;5043862;28;20037;-66
2024/03/27 04:08:44;;;;;;;8.80;3.67;;;;;;;9.37;100.00;98225.75;5041014;28;20022;-66
2024/03/27 04:11:09;;;;;;;9.23;3.65;;;;;;;9.38;100.00;98230.97;5044530;28;20452;-66
2024/03/27 04:13:35;;;;;;;7.95;3.60;;;;;;;9.36;100.00;98238.09;5041272;28;20037;-66
2024/03/27 04:16:01;;;;;;;8.65;3.80;;;;;;;9.34;100.00;98244.31;5043447;28;20037;-66
2024/03/27 04:18:28;;;;;;;10.75;4.00;;;;;;;9.35;100.00;98241.63;5042521;28;20147;-67
2024/03/27 04:20:53;;;;;;;12.02;4.20;;;;;;;9.34;100.00;98247.81;5042460;28;20384;-66
2024/03/27 04:23:19;;;;;;;10.85;4.18;;;;;;;9.34;100.00;98247.81;5043346;28;20033;-67
2024/03/27 04:25:48;;;;;;;11.80;4.50;;;;;;;9.38;100.00;98252.06;5039868;28;20037;-67
2024/03/27 04:28:15;;;;;;;10.43;4.30;;;;;;;9.40;100.00;98246.75;5043981;28;20466;-69
2024/03/27 04:30:40;;;;;;;12.10;4.50;;;;;;;9.37;100.00;98241.59;5045067;28;20030;-67
2024/03/27 04:33:06;;;;;;;11.00;4.30;;;;;;;9.35;100.00;98249.53;5050611;28;20035;-69
2024/03/27 04:35:32;;;;;;;12.73;4.38;;;;;;;9.33;100.00;98258.41;5048487;28;20036;-74
2024/03/27 04:37:57;;;;;;;12.80;4.50;;;;;;;9.32;100.00;98265.47;5049477;28;20029;-68
2024/03/27 04:40:22;;;;;;;11.90;4.53;;;;;;;9.37;100.00;98268.78;5049713;28;20047;-70
2024/03/27 04:42:48;;;;;;;11.75;4.40;;;;;;;9.29;100.00;98267.31;5047837;28;20508;-70
2024/03/27 04:45:13;;;;;;;11.55;4.28;;;;;;;9.24;100.00;98286.75;5050749;28;20037;-67
2024/03/27 04:47:38;;;;;;;10.73;4.20;;;;;;;9.23;100.00;98271.88;5047567;28;20030;-71
2024/03/27 04:50:04;;;;;;;11.68;4.32;;;;;;;9.19;100.00;98283.44;5048669;28;20033;-66
2024/03/27 04:52:30;;;;;;;11.82;4.50;;;;;;;9.17;100.00;98273.84;5048742;28;20022;-65
2024/03/27 04:54:55;;;;;;;11.38;4.20;;;;;;;9.16;100.00;98282.66;5048767;28;20503;-74
2024/03/27 04:57:21;;;;;;;12.93;4.50;;;;;;;9.06;100.00;98290.84;5049651;28;20033;-73
2024/03/27 04:59:46;;;;;;;12.02;4.47;;;;;;;8.79;100.00;98300.41;5047575;28;20028;-73
2024/03/27 05:02:12;;;;;;;11.18;4.43;;;;;;;8.72;100.00;98293.59;5050562;28;20379;-67
2024/03/27 05:04:37;;;;;;;13.35;4.60;;;;;;;8.76;100.00;98299.66;5029391;28;20033;-69
2024/03/27 05:07:03;;;;;;;14.80;4.60;;;;;;;8.71;100.00;98308.53;5048758;28;20484;-70
2024/03/27 05:09:30;;;;;;;12.13;4.53;;;;;;;8.81;100.00;98326.72;5048623;28;20058;-69
2024/03/27 05:11:56;;;;;;;12.23;4.63;;;;;;;8.78;100.00;98332.06;5048571;28;20029;-66
2024/03/27 05:14:21;;;;;;;13.15;4.50;;;;;;;8.81;100.00;98324.06;5049799;28;20033;-67
2024/03/27 05:16:46;;;;;;;15.00;4.80;;;;;;;8.76;100.00;98321.56;5047566;28;20388;-66
2024/03/27 05:19:12;;;;;;;14.70;4.80;;;;;;;8.71;100.00;98321.72;5050435;28;20464;-67
2024/03/27 05:21:38;;;;;;;13.23;4.70;;;;;;;8.73;100.00;98319.88;5045879;28;20032;-66
2024/03/27 05:24:03;;;;;;;14.05;4.70;;;;;;;8.71;100.00;98319.06;5048343;28;20041;-69
2024/03/27 05:26:29;;;;;;;15.15;4.90;;;;;;;8.69;100.00;98326.16;5048386;28;20029;-69
2024/03/27 05:28:55;;;;;;;12.30;4.55;;;;;;;8.65;100.00;98337.69;5048085;28;20057;-69
2024/03/27 05:31:21;;;;;;;13.05;4.72;;;;;;;8.60;100.00;98347.47;5048068;28;20032;-70
2024/03/27 05:33:47;;;;;;;12.63;4.57;;;;;;;8.58;100.00;98338.75;5047595;28;20164;-66
2024/03/27 05:36:13;;;;;;;12.25;4.40;;;;;;;8.56;100.00;98345.81;5049275;28;20074;-66
2024/03/27 05:38:38;;;;;;;13.60;4.80;;;;;;;8.55;100.00;98344.13;5047031;28;20021;-66
2024/03/27 05:41:04;;;;;;;11.93;4.63;;;;;;;8.60;100.00;98354.53;5048858;28;20033;-67
2024/03/27 05:43:29;;;;;;;11.50;4.45;;;;;;;8.51;100.00;98358.28;5044846;28;20037;-67
2024/03/27 05:45:55;;;;;;;12.93;4.30;;;;;;;8.48;100.00;98358.34;5045040;28;20511;-69
2024/03/27 05:48:21;;;;;;;12.50;4.45;;;;;;;8.48;100.00;98358.34;5044981;28;20027;-69
2024/03/27 05:50:46;;;;;;;12.02;4.30;;;;;;;8.47;100.00;98375.91;5043958;28;20033;-66
2024/03/27 05:53:12;;;;;;;11.32;4.38;;;;;;;8.50;100.00;98374.97;5047090;28;20037;-66
2024/03/27 05:55:38;;;;;;;10.93;4.20;;;;;;;8.44;100.00;98388.25;5043950;28;20362;-66
2024/03/27 05:58:03;;;;;;;13.75;4.57;;;;;;;8.42;100.00;98372.50;5045902;28;20079;-66
2024/03/27 06:00:29;;;;;;;12.27;4.53;;;;;;;8.35;100.00;98384.94;5044883;28;20021;-75
2024/03/27 06:02:54;;;;;;;14.18;5.00;;;;;;;8.30;100.00;98392.13;5045562;28;20053;-74
2024/03/27 06:05:20;;;;;;;15.27;5.13;;;;;;;8.32;100.00;98392.09;5046158;28;21019;-76
2024/03/27 06:07:46;;;;;;;14.70;4.78;;;;;;;8.23;100.00;98385.28;5043471;28;20026;-74
2024/03/27 06:10:11;;;;;;;14.32;4.97;;;;;;;8.18;100.00;98397.69;5047062;28;20060;-70
2024/03/27 06:12:36;;;;;;;15.25;5.28;;;;;;;8.19;100.00;98407.31;5043859;28;20026;-66
2024/03/27 06:15:02;;;;;;;17.35;5.60;;;;;;;8.16;100.00;98410.03;5046026;28;20431;-74
2024/03/27 06:17:27;;;;;;;17.10;6.07;;;;;;;8.10;100.00;98403.13;5045519;28;20037;-75
2024/03/27 06:19:53;;;;;;;17.92;6.50;;;;;;;8.08;100.00;98411.97;5044811;28;20040;-74
2024/03/27 06:22:18;;;;;;;17.42;6.13;;;;;;;8.02;100.00;98411.22;5046434;28;20025;-66
2024/03/27 06:24:43;;;;;;;17.85;6.57;;;;;;;7.93;100.00;98407.94;5042842;28;20471;-68
2024/03/27 06:27:09;;;;;;;18.13;6.70;;;;;;;7.81;100.00;98402.06;5046037;28;20514;-67
2024/03/27 06:29:34;;;;;;;17.83;6.55;;;;;;;7.74;100.00;98399.63;5043540;28;20064;-73
2024/03/27 06:31:59;;;;;;;18.27;6.50;;;;;;;7.70;100.00;98403.22;5044940;28;20121;-67
2024/03/27 06:34:25;;;;;;;18.05;6.47;;;;;;;7.68;100.00;98404.09;5043460;28;20071;-69
2024/03/27 06:36:50;;;;;;;18.67;6.43;;;;;;;7.68;100.00;98419.88;5044003;28;20037;-69
2024/03/27 06:39:16;;;;;;;18.67;6.50;;;;;;;7.67;100.00;98412.91;5044590;28;20036;-70
2024/03/27 06:41:42;;;;;;;18.63;6.50;;;;;;;7.66;100.00;98416.44;5042376;28;20088;-67
2024/03/27 06:44:08;;;;;;;17.98;6.50;;;;;;;7.67;100.00;98406.78;5045615;28;20057;-66
2024/03/27 06:46:36;;;;;;;18.48;6.40;;;;;;;7.66;100.00;98424.31;5043291;28;20032;-66
2024/03/27 06:49:21;;;;;;;18.90;6.65;;;;;;;7.65;100.00;98433.09;5044611;28;20029;-67
2024/03/27 06:51:50;;;;;;;17.33;6.30;;;;;;;7.69;100.00;98433.91;5039538;28;20021;-68
2024/03/27 06:54:16;;;;;;;17.00;6.35;;;;;;;7.65;100.00;98445.41;5045475;28;20025;-66
2024/03/27 06:56:42;;;;;;;19.55;6.57;;;;;;;7.64;100.00;98454.16;5042346;28;20030;-66
2024/03/27 06:59:07;;;;;;;17.73;6.10;;;;;;;7.66;100.00;98461.13;5045117;28;20490;-66
2024/03/27 07:01:33;;;;;;;17.08;5.60;;;;;;;7.68;100.00;98455.84;5043420;28;20033;-66
2024/03/27 07:03:58;;;;;;;16.80;5.80;;;;;;;7.71;100.00;98462.81;5042932;28;20034;-68
2024/03/27 07:06:23;;;;;;;16.77;5.53;;;;;;;7.79;100.00;98453.84;5044595;28;20426;-67
2024/03/27 07:08:49;;;;;;;17.50;5.80;;;;;;;7.76;100.00;98463.56;5042576;28;20021;-67
2024/03/27 07:11:14;;;;;;;17.40;5.60;;;;;;;7.82;100.00;98458.16;5045672;28;20029;-67
2024/03/27 07:13:39;;;;;;;15.80;5.55;;;;;;;7.88;100.00;98458.03;5042446;28;20132;-66
2024/03/27 07:16:05;;;;;;;16.25;5.30;;;;;;;7.93;100.00;98466.66;5044502;28;20458;-69
2024/03/27 07:18:31;;;;;;;18.00;5.82;;;;;;;7.92;100.00;98472.84;5043125;28;20035;-67
2024/03/27 07:20:57;;;;;;;16.90;5.60;;;;;;;7.95;100.00;98479.78;5043419;28;20029;-70
2024/03/27 07:23:22;;;;;;;16.70;5.80;;;;;;;7.97;100.00;98473.59;5044067;28;20040;-67
2024/03/27 07:25:48;;;;;;;17.60;5.40;;;;;;;7.95;100.00;98480.69;5042313;28;20037;-66
2024/03/27 07:28:13;;;;;;;17.33;5.40;;;;;;;7.89;100.00;98493.94;5045169;28;20041;-67
2024/03/27 07:30:38;;;;;;;17.63;5.38;;;;;;;7.96;100.00;98503.44;5042110;28;20056;-67
2024/03/27 07:33:04;;;;;;;18.38;5.78;;;;;;;7.99;100.00;98498.13;5043981;28;20071;-67
2024/03/27 07:35:31;;;;;;;17.27;5.60;;;;;;;7.98;100.00;98501.66;5043052;28;20039;-69
2024/03/27 07:37:58;;;;;;;17.50;5.85;;;;;;;8.01;100.00;98488.41;5042806;28;20032;-66
2024/03/27 07:40:23;;;;;;;17.00;5.50;;;;;;;8.11;100.00;98485.56;5042417;28;20479;-67
2024/03/27 07:42:49;;;;;;;16.92;5.53;;;;;;;8.19;100.00;98473.09;5041986;28;20045;-67
2024/03/27 07:45:14;;;;;;;19.10;5.78;;;;;;;8.26;100.00;98487.84;5044679;28;20516;-66
2024/03/27 07:47:39;;;;;;;17.55;5.78;;;;;;;8.27;100.00;98486.97;5044948;28;20039;-68
2024/03/27 07:50:08;;;;;;;19.23;6.20;;;;;;;8.37;100.00;98485.84;5042253;28;20034;-67
2024/03/27 07:52:33;;;;;;;17.50;5.90;;;;;;;8.43;100.00;98478.69;5043869;28;20080;-67
2024/03/27 07:54:59;;;;;;;18.63;5.97;;;;;;;8.47;100.00;98483.84;5043161;28;20032;-68
2024/03/27 07:57:24;;;;;;;18.98;6.05;;;;;;;8.53;100.00;98478.47;5042531;28;20116;-67
2024/03/27 07:59:49;;;;;;;18.58;6.53;;;;;;;8.61;100.00;98485.31;5042814;28;20112;-67
2024/03/27 08:02:14;;;;;;;18.27;6.00;;;;;;;8.59;100.00;98474.81;5041467;28;20454;-67
2024/03/27 08:04:40;;;;;;;17.90;5.95;;;;;;;8.62;100.00;98482.63;5042082;28;20476;-67
2024/03/27 08:07:05;;;;;;;18.10;6.15;;;;;;;8.61;100.00;98477.41;5041734;28;20038;-69
2024/03/27 08:09:30;;;;;;;18.25;6.30;;;;;;;8.56;100.00;98488.03;5041899;28;20033;-67
2024/03/27 08:11:56;;;;;;;19.33;5.80;;;;;;;8.53;100.00;98480.22;5042908;28;20122;-67
2024/03/27 08:14:22;;;;;;;17.92;5.80;;;;;;;8.48;100.00;98487.38;5041784;28;20068;-68
2024/03/27 08:16:50;;;;;;;17.42;5.47;;;;;;;8.39;100.00;98485.81;5044221;28;20116;-67
2024/03/27 08:19:16;;;;;;;16.65;4.90;;;;;;;8.37;100.00;98488.47;5040849;28;20068;-67
2024/03/27 08:21:41;;;;;;;17.33;5.03;;;;;;;8.41;100.00;98483.13;5044462;28;20122;-67
2024/03/27 08:24:06;;;;;;;15.85;4.60;;;;;;;8.40;100.00;98484.88;5041556;28;20160;-66
2024/03/27 08:26:32;;;;;;;14.85;4.38;;;;;;;8.42;100.00;98474.31;5042905;28;20030;-67
2024/03/27 08:28:58;;;;;;;16.65;4.80;;;;;;;8.43;100.00;98471.66;5039903;28;20495;-67
2024/03/27 08:31:23;;;;;;;18.25;5.10;;;;;;;8.40;100.00;98476.13;5043292;28;20024;-69
2024/03/27 08:33:48;;;;;;;16.63;4.97;;;;;;;8.41;100.00;98486.63;5041161;28;20056;-69
2024/03/27 08:36:14;;;;;;;18.15;5.30;;;;;;;8.43;100.00;98481.31;5044388;28;20388;-67
2024/03/27 08:38:39;;;;;;;17.73;5.28;;;;;;;8.38;100.00;98477.00;5041040;28;20087;-67
2024/03/27 08:41:04;;;;;;;16.48;5.00;;;;;;;8.33;100.00;98481.53;5043107;28;20046;-67
2024/03/27 08:43:30;;;;;;;17.27;4.80;;;;;;;8.20;100.00;98490.63;5042310;28;20083;-66
2024/03/27 08:45:55;;;;;;;17.70;4.97;;;;;;;7.90;100.00;98495.69;5042023;28;20029;-67
2024/03/27 08:48:21;;;;;;;16.20;4.70;;;;;;;7.67;100.00;98497.06;5043445;28;20051;-67
2024/03/27 08:50:47;;;;;;;16.25;4.70;;;;;;;7.40;100.00;98505.53;5039847;28;20029;-67
2024/03/27 08:53:13;;;;;;;16.88;5.13;;;;;;;7.25;100.00;98509.28;5044178;28;20047;-66
2024/03/27 08:55:43;;;;;;;16.00;4.75;;;;;;;7.15;100.00;98508.63;5041072;28;20025;-66
2024/03/27 08:58:09;;;;;;;16.15;5.13;;;;;;;6.97;100.00;98512.44;5043760;28;20033;-66
2024/03/27 09:00:35;;;;;;;17.98;5.60;;;;;;;6.90;100.00;98519.59;5041316;28;20117;-67
2024/03/27 09:03:02;;;;;;;18.17;5.50;;;;;;;6.76;100.00;98537.34;5042207;28;20116;-66
2024/03/27 09:05:28;;;;;;;18.83;5.43;;;;;;;6.71;100.00;98547.88;5035765;28;20438;-67
2024/03/27 09:07:53;;;;;;;18.00;5.57;;;;;;;6.65;100.00;98555.00;5040418;28;20060;-66
2024/03/27 09:10:19;;;;;;;19.00;5.60;;;;;;;6.62;100.00;98545.41;5042077;28;20082;-67
2024/03/27 09:12:44;;;;;;;18.38;5.80;;;;;;;6.55;100.00;98546.41;5040763;28;20034;-66
2024/03/27 09:15:10;;;;;;;17.92;5.70;;;;;;;6.58;100.00;98549.88;5040279;28;20656;-66
2024/03/27 09:17:36;;;;;;;20.50;6.70;;;;;;;6.65;100.00;98549.75;5039793;28;20034;-66
2024/03/27 09:20:03;;;;;;;19.25;6.45;;;;;;;6.65;100.00;98555.00;5047132;28;20328;-65
2024/03/27 09:22:31;;;;;;;19.75;6.68;;;;;;;6.69;100.00;98554.06;5043545;28;20025;-65
2024/03/27 09:24:57;;;;;;;19.17;6.38;;;;;;;6.70;100.00;98554.06;5044800;28;20029;-65
2024/03/27 09:27:22;;;;;;;19.38;6.18;;;;;;;6.70;100.00;98558.41;5045919;28;20029;-66
2024/03/27 09:29:54;;;;;;;19.13;6.72;;;;;;;6.70;100.00;98558.41;5046380;28;20035;-65
2024/03/27 09:32:20;;;;;;;19.73;6.72;;;;;;;6.65;100.00;98557.63;5045249;28;20116;-66
2024/03/27 09:34:48;;;;;;;20.10;6.65;;;;;;;6.69;100.00;98561.97;5046521;28;20037;-66
2024/03/27 09:37:15;;;;;;;19.67;7.38;;;;;;;6.78;100.00;98556.53;5044568;28;20052;-71
2024/03/27 09:39:40;;;;;;;20.10;6.93;;;;;;;6.84;100.00;98555.56;5044654;28;20096;-67
2024/03/27 09:42:06;;;;;;;20.33;7.18;;;;;;;6.79;100.00;98563.53;5047134;28;20483;-67
2024/03/27 09:44:31;;;;;;;20.75;7.43;;;;;;;6.80;100.00;98570.50;5043592;28;20087;-66
2024/03/27 09:47:00;;;;;;;20.20;7.10;;;;;;;6.84;100.00;98577.44;5046455;28;20064;-65
2024/03/27 09:49:29;;;;;;;21.17;7.55;;;;;;;6.83;100.00;98594.13;5044208;28;20037;-68
2024/03/27 09:51:57;;;;;;;20.30;7.25;;;;;;;6.81;100.00;98593.25;5045663;28;20029;-65
2024/03/27 09:54:27;;;;;;;20.63;7.43;;;;;;;6.79;100.00;98605.56;5044031;28;20431;-66
2024/03/27 09:56:55;;;;;;;21.48;8.50;;;;;;;6.78;100.00;98604.66;5046836;28;20097;-72
2024/03/27 09:59:20;;;;;;;20.92;8.25;;;;;;;6.77;100.00;98602.06;5043632;28;20033;-70
2024/03/27 10:02:00;;;;;;;21.27;8.32;;;;;;;6.80;100.00;98612.53;5047224;28;20033;-66
2024/03/27 10:04:25;;;;;;;21.58;8.60;;;;;;;6.85;100.00;98609.84;5045899;28;20036;-67
2024/03/27 10:06:52;;;;;;;22.63;9.05;;;;;;;6.94;100.00;98621.03;5043946;28;20532;-68
2024/03/27 10:09:18;;;;;;;23.17;9.20;;;;;;;6.96;100.00;98616.66;5046680;28;20468;-76
2024/03/27 10:11:44;;;;;;;20.83;8.80;;;;;;;6.90;100.00;98606.25;5043751;28;20029;-76
2024/03/27 10:14:09;;;;;;;21.55;8.73;;;;;;;7.04;100.00;98621.78;5045804;28;20028;-76
2024/03/27 10:16:35;;;;;;;20.88;9.13;;;;;;;7.07;100.00;98616.47;5046686;28;20034;-74
2024/03/27 10:19:00;;;;;;;21.25;8.40;;;;;;;7.08;100.00;98607.69;5044141;28;20029;-75
2024/03/27 10:21:26;;;;;;;21.88;9.50;;;;;;;7.15;100.00;98613.72;5026642;28;20109;-75
2024/03/27 10:23:52;;;;;;;21.92;9.27;;;;;;;7.28;100.00;98609.97;5046257;28;20080;-74
2024/03/27 10:26:18;;;;;;;21.55;9.27;;;;;;;7.44;100.00;98612.31;5043067;28;20025;-69
2024/03/27 10:28:44;;;;;;;21.52;9.30;;;;;;;7.55;100.00;98610.34;5045049;28;20052;-65
2024/03/27 10:31:09;;;;;;;21.13;9.48;;;;;;;7.61;100.00;98620.75;5042221;28;20036;-65
2024/03/27 10:33:34;;;;;;;21.85;9.30;;;;;;;7.73;100.00;98626.69;5044985;28;20116;-65
2024/03/27 10:36:02;;;;;;;21.15;9.60;;;;;;;7.79;100.00;98627.44;5044757;28;20112;-65
2024/03/27 10:38:28;;;;;;;21.67;9.35;;;;;;;7.90;100.00;98629.84;5043544;28;20037;-65
2024/03/27 10:40:57;;;;;;;21.50;9.45;;;;;;;7.84;100.00;98637.88;5045004;28;20048;-67
2024/03/27 10:43:22;;;;;;;21.77;9.77;;;;;;;7.89;100.00;98640.41;5045233;28;20440;-65
2024/03/27 10:45:49;;;;;;;21.40;9.95;;;;;;;7.89;100.00;98643.88;5042797;28;20053;-71
2024/03/27 10:48:16;;;;;;;21.10;9.60;;;;;;;7.85;100.00;98642.25;5046025;28;20037;-65
2024/03/27 10:50:42;;;;;;;21.88;9.70;;;;;;;7.86;100.00;98633.44;5042524;28;20112;-67
2024/03/27 10:53:07;;;;;;;21.77;10.05;;;;;;;7.89;100.00;98620.22;5045088;28;20116;-70
2024/03/27 10:55:37;;;;;;;21.88;10.40;;;;;;;8.14;100.00;98630.22;5042848;28;20059;-68
2024/03/27 10:58:03;;;;;;;21.63;9.93;;;;;;;8.13;100.00;98620.63;5044451;28;20025;-69
2024/03/27 11:00:30;;;;;;;21.63;10.40;;;;;;;8.15;100.00;98637.25;5043917;28;20097;-68
2024/03/27 11:02:57;;;;;;;21.25;9.98;;;;;;;8.30;100.00;98623.78;5043242;28;20488;-65
2024/03/27 11:05:26;;;;;;;20.90;9.70;;;;;;;8.41;100.00;98620.03;5044895;28;20594;-66
2024/03/27 11:07:53;;;;;;;22.05;9.95;;;;;;;8.56;100.00;98632.88;5042450;28;20030;-70
2024/03/27 11:10:22;;;;;;;20.83;9.63;;;;;;;8.59;100.00;98627.56;5043992;28;20095;-69
2024/03/27 11:12:48;;;;;;;21.52;9.60;;;;;;;8.80;100.00;98623.53;5042219;28;20026;-69
2024/03/27 11:15:17;;;;;;;20.65;9.00;;;;;;;9.13;100.00;98626.28;5045516;28;20380;-66
2024/03/27 11:17:56;;;;;;;20.75;9.15;;;;;;;9.27;100.00;98618.00;5040789;28;20049;-66